createdAt,value
2016-10-04T10:04:55.369Z,89.01
2016-10-04T10:09:55.312Z,89.3
2016-10-04T10:14:55.258Z,88.92
2016-10-04T10:19:55.208Z,89.3
2016-10-04T10:24:55.155Z,89.5
2016-10-04T10:29:55.108Z,89.4
2016-10-04T10:34:54.770Z,89.21
2016-10-04T10:39:54.711Z,88.82
2016-10-04T10:44:54.961Z,89.01
2016-10-04T10:49:54.613Z,89.78
2016-10-04T10:54:54.878Z,89.5
2016-10-04T10:59:54.831Z,89.01
2016-10-04T11:04:54.477Z,88.82
2016-10-04T11:09:54.432Z,88.92
2016-10-04T11:14:54.395Z,89.3
2016-10-04T11:19:54.647Z,89.4
2016-10-04T11:24:54.606Z,89.5
2016-10-04T11:29:54.561Z,89.01
2016-10-04T11:34:54.515Z,89.69
2016-10-04T11:55:14.319Z,89.59
2016-10-04T12:01:50.191Z,88.87
2016-10-04T12:06:50.447Z,88.73
2016-10-04T12:11:50.391Z,88.73
2016-10-04T12:16:50.341Z,88.73
2016-10-04T12:21:50.294Z,88.63
2016-10-04T12:26:50.246Z,88.06
2016-10-04T12:31:50.196Z,88.06
2016-10-04T12:36:50.144Z,88.92
2016-10-04T12:41:50.101Z,87.09
2016-10-04T12:46:50.059Z,87.62
2016-10-04T12:51:50.009Z,84.44
2016-10-04T12:56:49.967Z,76.73
2016-10-04T13:01:49.922Z,76.9
2016-10-04T13:06:49.573Z,79.12
2016-10-04T13:11:49.842Z,80.69
2016-10-04T13:16:49.487Z,81.04
2016-10-04T13:21:49.440Z,80.31
2016-10-04T13:26:49.705Z,82.59
2016-10-04T13:31:49.349Z,82.01
2016-10-04T13:36:49.609Z,83.16
2016-10-04T13:41:49.271Z,83.85
2016-10-04T13:46:49.521Z,84.1
2016-10-04T13:51:49.473Z,83.85
2016-10-04T13:56:49.140Z,84
2016-10-04T14:01:49.083Z,84
2016-10-04T14:06:49.341Z,83.52
2016-10-04T14:11:48.993Z,83.42
2016-10-04T14:16:49.256Z,83.95
2016-10-04T14:21:49.214Z,82.89
2016-10-04T14:26:48.868Z,81.63
2016-10-04T14:31:49.116Z,82.31
2016-10-04T14:36:48.795Z,81.16
2016-10-04T14:41:49.018Z,80.68
2016-10-04T14:46:48.988Z,79.66
2016-10-04T14:51:48.933Z,79.89
2016-10-04T14:56:48.585Z,79.35
2016-10-04T15:01:48.844Z,79.98
2016-10-04T15:06:48.798Z,80.33
2016-10-04T15:11:48.753Z,81.54
2016-10-04T15:16:48.712Z,82.02
2016-10-04T15:21:48.670Z,81.21
2016-10-04T15:26:48.627Z,81.6
2016-10-04T15:31:48.587Z,81.98
2016-10-04T15:36:48.552Z,81.98
2016-10-04T15:41:48.506Z,82.27
2016-10-04T15:46:48.466Z,82.27
2016-10-04T15:51:48.418Z,82.08
2016-10-04T15:56:48.378Z,82.37
2016-10-04T16:01:48.339Z,83.62
2016-10-04T16:06:48.297Z,84.58
2016-10-04T16:11:48.255Z,86.6
2016-10-04T16:16:48.216Z,85.3
2016-10-04T16:21:48.178Z,86.83
2016-10-04T16:26:47.832Z,84.72
2016-10-04T16:31:48.100Z,84.67
2016-10-04T16:36:48.058Z,84.48
2016-10-04T16:41:48.013Z,85.06
2016-10-04T16:46:47.672Z,84.19
2016-10-04T16:51:47.936Z,84.1
2016-10-04T16:56:47.888Z,83.77
2016-10-04T17:01:47.541Z,83.67
2016-10-04T17:06:47.802Z,84.06
2016-10-04T17:13:16.158Z,83.19
2016-10-04T17:18:16.108Z,83.52
2016-10-04T17:23:16.069Z,83.09
2016-10-04T17:28:16.028Z,84.34
2016-10-04T17:33:15.979Z,83.86
2016-10-04T17:38:15.940Z,84.25
2016-10-04T17:43:15.789Z,84.44
2016-10-04T17:48:15.546Z,84.63
2016-10-04T17:53:15.812Z,85.4
2016-10-04T17:58:15.456Z,85.31
2016-10-04T18:03:15.714Z,84.98
2016-10-04T18:08:15.679Z,84.59
2016-10-04T18:13:15.629Z,84.63
2016-10-04T18:18:15.587Z,84.4
2016-10-04T18:23:15.545Z,84.54
2016-10-04T18:28:15.500Z,84.11
2016-10-04T18:33:15.147Z,84.11
2016-10-04T18:38:15.410Z,84.3
2016-10-04T18:43:15.372Z,84.21
2016-10-04T18:48:15.325Z,84.69
2016-10-04T18:53:15.281Z,84.4
2016-10-04T18:58:15.236Z,84.98
2016-10-04T19:03:15.192Z,84.5
2016-10-04T19:08:14.842Z,85.07
2016-10-04T19:13:15.119Z,84.98
2016-10-04T19:18:15.055Z,85.55
2016-10-04T19:23:15.027Z,86.04
2016-10-04T19:28:14.971Z,86.13
2016-10-04T19:33:14.928Z,86.13
2016-10-04T19:38:14.877Z,86.04
2016-10-04T19:43:14.835Z,85.75
2016-10-04T19:48:14.794Z,85.84
2016-10-04T19:53:14.751Z,85.84
2016-10-04T19:58:14.701Z,85.36
2016-10-04T20:03:14.655Z,85.46
2016-10-04T20:08:14.609Z,85.27
2016-10-04T20:13:14.559Z,85.27
2016-10-04T20:18:14.208Z,84.4
2016-10-04T20:23:14.471Z,84.69
2016-10-04T20:28:14.421Z,84.88
2016-10-04T20:33:14.384Z,84.69
2016-10-04T20:38:14.336Z,84.78
2016-10-04T20:43:14.295Z,85.13
2016-10-04T20:48:13.939Z,84.17
2016-10-04T20:53:14.198Z,84.84
2016-10-04T20:58:14.151Z,84.64
2016-10-04T21:03:14.098Z,84.45
2016-10-04T21:08:13.752Z,85.03
2016-10-04T21:13:14.025Z,84.94
2016-10-04T21:18:13.968Z,84.36
2016-10-04T21:23:13.614Z,84.84
2016-10-04T21:28:13.876Z,84.84
2016-10-04T21:33:13.520Z,84.74
2016-10-04T21:38:13.476Z,84.64
2016-10-04T21:43:13.738Z,84.84
2016-10-04T21:48:13.683Z,84.36
2016-10-04T21:53:13.636Z,84.36
2016-10-04T21:58:13.584Z,84.41
2016-10-04T22:03:13.540Z,84.41
2016-10-04T22:08:13.488Z,84.31
2016-10-04T22:13:13.444Z,83.93
2016-10-04T22:18:13.389Z,84.12
2016-10-04T22:23:13.034Z,84.31
2016-10-04T22:28:13.292Z,84.22
2016-10-04T22:33:13.240Z,84.12
2016-10-04T22:38:13.190Z,84.22
2016-10-04T22:43:12.835Z,84.12
2016-10-04T22:48:12.782Z,83.84
2016-10-04T22:53:13.036Z,83.54
2016-10-04T22:58:12.988Z,83.45
2016-10-04T23:03:12.942Z,83.54
2016-10-04T23:08:12.887Z,83.84
2016-10-04T23:13:12.531Z,83.41
2016-10-04T23:18:12.784Z,83.6
2016-10-04T23:23:12.733Z,83.6
2016-10-04T23:28:12.374Z,83.89
2016-10-04T23:33:12.630Z,83.41
2016-10-04T23:38:12.584Z,83.51
2016-10-04T23:43:12.525Z,83.31
2016-10-04T23:48:12.472Z,83.31
2016-10-04T23:53:12.430Z,83.22
2016-10-04T23:58:12.067Z,83.22
